CCS6 weather

Courtenay (Smit Field) Airport
Courtenay, British Columbia, Canada

Public forecast

Using degrees Celsius for public forecast. Weather courtesy of forecast.io.

METAR (pilot weather report)

Closest report is Comox Airport, 8.5 nm (15.7 km) ENE. Retrieved 2019/09/23 16:00 UTC (56 minutes ago):

CYQQ 231600Z 30004KT 8SM -RA BKN016 OVC042 10/09 A3010 RMK SC6SC2 SLP193

TAF (pilot weather forecast)

Closest forecast is Comox Airport, 8.5 nm (15.7 km) ENE. Retrieved 2019/09/23 12:03 UTC (5 hours ago):

TAF TAF CYQQ 231300Z 2312/2412 34005KT P6SM BKN040 BKN220 FM231500 VRB03KT P6SM BKN025 OVC080 FM231700 13010KT P6SM -RA BKN020 OVC030 TEMPO 2317/2321 3SM -RA BR BKN008 OVC020 FM232100 14015G25KT 6SM BR OVC012 TEMPO 2321/2412 3/4SM -DZ BR BKN006 OVC010 RMK NXT FCST BY 231800Z